Time;durP1;ratioP1;P1;durP2;ratioP2;P2;SDS_P1;SDS_P2;PMS_P1;PMS_P2;Temp;Humidity;BMP_temperature;BMP_pressure;BME280_temperature;BME280_humidity;BME280_pressure;Samples;Min_cycle;Max_cycle;Signal;HPM_P1;HPM_P2
2021/09/14 00:02:14;;;;;;;2.10;1.90;;;;;;;28.77;37.84;96570.63;4979566;28;20040;-32
2021/09/14 00:04:39;;;;;;;1.92;1.48;;;;;;;28.77;37.71;96565.34;4979372;28;20472;-30
2021/09/14 00:07:07;;;;;;;2.97;1.65;;;;;;;28.77;37.87;96571.47;4973729;28;20034;-31
2021/09/14 00:09:35;;;;;;;3.33;1.90;;;;;;;28.78;37.78;96572.28;4978717;28;20190;-31
2021/09/14 00:12:01;;;;;;;3.63;2.08;;;;;;;28.78;37.79;96567.03;4979782;28;20026;-31
2021/09/14 00:14:26;;;;;;;2.25;2.05;;;;;;;28.78;37.58;96574.94;4984727;28;20073;-29
2021/09/14 00:16:52;;;;;;;2.33;1.60;;;;;;;28.78;37.89;96567.03;4975324;28;20038;-28
2021/09/14 00:19:17;;;;;;;5.40;1.90;;;;;;;28.77;37.80;96570.63;4970915;28;22712;-30
2021/09/14 00:21:43;;;;;;;3.03;1.80;;;;;;;28.78;37.77;96567.03;4976052;28;20162;-28
2021/09/14 00:24:08;;;;;;;3.65;1.83;;;;;;;28.77;37.77;96560.06;4982114;28;20478;-27
2021/09/14 00:26:34;;;;;;;5.03;2.10;;;;;;;28.77;37.68;96565.34;4971664;28;20034;-29
2021/09/14 00:29:00;;;;;;;2.05;1.73;;;;;;;28.77;37.75;96567.97;4980598;28;20637;-28
2021/09/14 00:31:26;;;;;;;3.58;1.75;;;;;;;28.76;37.88;96559.22;4976991;28;20392;-29
2021/09/14 00:33:51;;;;;;;2.38;1.77;;;;;;;28.76;37.63;96567.13;4977544;28;20049;-29
2021/09/14 00:36:17;;;;;;;2.30;1.63;;;;;;;28.76;37.92;96561.84;4983794;28;20186;-30
2021/09/14 00:38:42;;;;;;;2.67;1.50;;;;;;;28.77;37.82;96563.56;4976129;28;20485;-30
2021/09/14 00:41:07;;;;;;;1.98;1.77;;;;;;;28.77;37.62;96562.72;4972312;28;20022;-28
2021/09/14 00:43:33;;;;;;;3.17;1.75;;;;;;;28.76;37.63;96547.84;4979020;28;20026;-30
2021/09/14 00:45:59;;;;;;;1.60;1.25;;;;;;;28.77;37.90;96546.88;4979664;28;20027;-30
2021/09/14 00:48:24;;;;;;;2.60;1.60;;;;;;;28.77;37.68;96549.53;4975415;28;20026;-28
2021/09/14 00:50:49;;;;;;;1.70;1.60;;;;;;;28.76;37.66;96547.84;4977116;28;20568;-32
2021/09/14 00:53:15;;;;;;;2.13;1.55;;;;;;;28.77;37.68;96549.53;4982434;28;20081;-28
2021/09/14 00:55:41;;;;;;;3.70;1.90;;;;;;;28.76;37.49;96542.56;4975855;28;20042;-31
2021/09/14 00:58:06;;;;;;;1.90;1.65;;;;;;;28.76;37.69;96542.56;4980928;28;20222;-30
2021/09/14 01:00:31;;;;;;;3.00;1.80;;;;;;;28.76;37.64;96540.75;4978475;28;20101;-31
2021/09/14 01:02:57;;;;;;;2.03;1.60;;;;;;;28.75;37.64;96539.06;4980705;28;20022;-30
2021/09/14 01:05:22;;;;;;;2.15;1.83;;;;;;;28.76;37.70;96534.66;4977968;28;20033;-29
2021/09/14 01:07:48;;;;;;;2.30;1.90;;;;;;;28.76;37.65;96532.03;4967185;28;20480;-31
2021/09/14 01:10:13;;;;;;;2.05;1.85;;;;;;;28.76;37.68;96537.28;4960442;28;20030;-29
2021/09/14 01:12:39;;;;;;;2.22;1.63;;;;;;;28.76;37.68;96535.47;4970150;28;20117;-30
2021/09/14 01:15:05;;;;;;;2.30;1.70;;;;;;;28.75;37.82;96530.34;4955032;28;20447;-30
2021/09/14 01:17:33;;;;;;;4.30;1.92;;;;;;;28.76;37.47;96532.03;4974701;28;20061;-32
2021/09/14 01:19:58;;;;;;;2.28;1.88;;;;;;;28.73;37.67;96524.31;4978622;28;20037;-29
2021/09/14 01:22:28;;;;;;;1.77;1.67;;;;;;;28.75;37.62;96532.97;4976430;28;20073;-28
2021/09/14 01:24:53;;;;;;;1.73;1.63;;;;;;;28.71;37.47;96523.59;4979254;28;20382;-32
2021/09/14 01:27:18;;;;;;;1.95;1.70;;;;;;;28.75;37.86;96527.69;4977119;28;20120;-30
2021/09/14 01:32:28;;;;;;;2.15;1.83;;;;;;;28.75;37.74;96525.06;4981287;28;20995;-31
2021/09/14 01:34:53;;;;;;;1.85;1.50;;;;;;;28.75;37.64;96531.16;4979836;28;20488;-29
2021/09/14 01:37:19;;;;;;;3.88;1.73;;;;;;;28.75;37.45;96530.34;4975996;28;20045;-28
2021/09/14 01:39:44;;;;;;;2.15;1.45;;;;;;;28.74;37.69;96532.13;4976705;28;20034;-30
2021/09/14 01:42:09;;;;;;;1.70;1.60;;;;;;;28.74;37.71;96523.34;4979026;28;20022;-29
2021/09/14 01:44:35;;;;;;;2.70;1.50;;;;;;;28.74;37.72;96528.63;4978655;28;20018;-28
2021/09/14 01:47:00;;;;;;;3.53;1.60;;;;;;;28.74;37.49;96523.34;4978460;28;20038;-30
2021/09/14 01:49:26;;;;;;;3.33;1.83;;;;;;;28.71;37.40;96523.59;4972483;28;20690;-32
2021/09/14 01:51:51;;;;;;;1.65;1.55;;;;;;;28.75;37.52;96532.97;4984188;28;20037;-30
2021/09/14 01:54:16;;;;;;;1.73;1.40;;;;;;;28.73;37.69;96532.22;4977295;28;20034;-30
2021/09/14 01:56:42;;;;;;;1.90;1.73;;;;;;;28.73;37.68;96533.09;4984380;28;20025;-30
2021/09/14 01:59:08;;;;;;;2.10;1.70;;;;;;;28.73;37.72;96534.88;4974659;28;20026;-29
2021/09/14 02:01:40;;;;;;;2.65;1.40;;;;;;;28.73;37.72;96537.50;4974130;28;20033;-31
2021/09/14 02:04:10;;;;;;;4.18;1.92;;;;;;;28.73;37.49;96543.63;4972848;28;20030;-30
2021/09/14 02:58:41;;;;;;;2.38;1.73;;;;;;;28.62;37.40;96515.38;4983583;28;20587;-27
2021/09/14 03:01:07;;;;;;;4.43;2.10;;;;;;;28.66;37.50;96522.13;4977472;28;20038;-31
2021/09/14 03:03:33;;;;;;;3.47;1.45;;;;;;;28.66;37.33;96519.47;4982454;28;20036;-29
2021/09/14 03:05:59;;;;;;;1.70;1.50;;;;;;;28.65;37.64;96520.41;4983334;28;20026;-29
2021/09/14 03:08:24;;;;;;;3.58;2.13;;;;;;;28.64;37.64;96513.47;4980352;28;20033;-31
2021/09/14 03:10:50;;;;;;;2.03;1.65;;;;;;;28.66;37.22;96516.84;4980507;28;20505;-30
2021/09/14 03:13:15;;;;;;;2.10;1.50;;;;;;;28.67;37.55;96518.53;4982366;28;20038;-29
2021/09/14 03:15:40;;;;;;;5.78;1.73;;;;;;;28.66;37.34;96516.00;4980462;28;20026;-31
2021/09/14 03:18:06;;;;;;;1.95;1.75;;;;;;;28.66;37.48;96514.22;4976587;28;20416;-32
2021/09/14 03:20:31;;;;;;;2.15;1.65;;;;;;;28.67;37.49;96507.13;4978424;28;20037;-29
2021/09/14 03:22:57;;;;;;;2.20;1.52;;;;;;;28.67;37.39;96517.66;4983211;28;20098;-28
2021/09/14 03:25:22;;;;;;;5.72;2.10;;;;;;;28.67;37.35;96512.41;4980042;28;20048;-32
2021/09/14 03:27:47;;;;;;;1.77;1.48;;;;;;;28.67;37.41;96515.03;4985948;28;20034;-28
2021/09/14 03:30:13;;;;;;;4.47;1.92;;;;;;;28.66;37.24;96511.56;4977865;28;20045;-29
2021/09/14 03:32:38;;;;;;;2.08;1.85;;;;;;;28.66;37.40;96511.56;4980844;28;20040;-28
2021/09/14 03:35:04;;;;;;;2.97;1.90;;;;;;;28.66;37.29;96508.94;4981985;28;20029;-28
2021/09/14 03:37:30;;;;;;;2.47;1.77;;;;;;;28.66;37.18;96514.22;4974891;28;20129;-31
2021/09/14 03:39:55;;;;;;;3.17;1.83;;;;;;;28.66;37.31;96511.56;4974033;28;20757;-29
2021/09/14 03:42:21;;;;;;;4.72;1.70;;;;;;;28.66;37.25;96505.44;4960452;28;20049;-30
2021/09/14 03:44:46;;;;;;;2.13;1.70;;;;;;;28.65;37.33;96509.84;4982593;28;20034;-31
2021/09/14 03:47:11;;;;;;;1.92;1.70;;;;;;;28.65;37.25;96507.22;4958856;28;20040;-30
2021/09/14 03:49:37;;;;;;;1.70;1.60;;;;;;;28.66;37.22;96508.09;4980380;28;20040;-30
2021/09/14 03:52:02;;;;;;;2.25;1.75;;;;;;;28.64;37.35;96502.91;4972804;28;20046;-29
2021/09/14 03:54:28;;;;;;;2.67;1.58;;;;;;;28.63;37.21;96501.22;4978469;28;20026;-30
2021/09/14 03:56:53;;;;;;;1.75;1.60;;;;;;;28.64;37.13;96502.91;4984742;28;20053;-29
2021/09/14 03:59:19;;;;;;;2.08;1.80;;;;;;;28.64;37.20;96500.28;4975981;28;20029;-29
2021/09/14 04:01:50;;;;;;;4.15;1.67;;;;;;;28.63;37.12;96495.97;4970638;28;20080;-28
2021/09/14 04:04:24;;;;;;;2.53;1.77;;;;;;;28.64;37.22;96496.81;4980686;28;20034;-29
2021/09/14 04:07:02;;;;;;;4.25;1.90;;;;;;;28.64;36.97;96502.09;4980860;28;20118;-29
2021/09/14 04:09:27;;;;;;;2.03;1.80;;;;;;;28.63;37.27;96498.59;4981486;28;20515;-30
2021/09/14 04:11:52;;;;;;;3.05;1.85;;;;;;;28.63;37.32;96495.97;4983184;28;20042;-32
2021/09/14 04:14:18;;;;;;;2.45;1.95;;;;;;;28.63;37.03;96497.75;4978825;28;20078;-32
2021/09/14 04:16:43;;;;;;;3.83;1.77;;;;;;;28.63;37.27;96501.22;4974503;28;20084;-27
2021/09/14 04:19:09;;;;;;;3.78;1.73;;;;;;;28.63;37.13;96495.09;4977128;28;20030;-30
2021/09/14 04:21:34;;;;;;;2.72;2.03;;;;;;;28.61;37.26;96492.59;4972147;28;20030;-29
2021/09/14 04:23:59;;;;;;;3.10;1.50;;;;;;;28.60;37.04;96490.88;4983269;28;20030;-29
2021/09/14 04:26:25;;;;;;;2.58;2.00;;;;;;;28.63;37.16;96495.97;4976702;28;20485;-38
2021/09/14 04:28:50;;;;;;;2.50;2.05;;;;;;;28.61;37.23;96489.97;4978350;28;20030;-30
2021/09/14 04:31:16;;;;;;;2.20;1.80;;;;;;;28.61;37.13;96483.84;4970798;28;20110;-29
2021/09/14 04:33:41;;;;;;;2.70;1.70;;;;;;;28.61;36.95;96487.31;4950211;28;20772;-29
2021/09/14 04:36:06;;;;;;;3.33;2.00;;;;;;;28.61;37.14;96487.31;4972598;28;20038;-29
2021/09/14 04:38:32;;;;;;;3.05;1.70;;;;;;;28.61;37.25;96486.47;4974400;28;20053;-29
2021/09/14 04:40:57;;;;;;;3.67;1.85;;;;;;;28.61;36.92;96483.84;4984358;28;20058;-30
2021/09/14 04:43:23;;;;;;;3.00;1.75;;;;;;;28.60;37.00;96490.88;4978389;28;20022;-29
2021/09/14 04:45:48;;;;;;;2.13;1.92;;;;;;;28.61;37.24;96489.09;4976023;28;20022;-30
2021/09/14 04:48:13;;;;;;;2.20;1.75;;;;;;;28.60;37.18;96490.88;4976674;28;20480;-29
2021/09/14 04:50:39;;;;;;;2.70;2.00;;;;;;;28.60;37.16;96495.34;4975033;28;20033;-28
2021/09/14 04:53:04;;;;;;;4.45;1.85;;;;;;;28.60;37.17;96492.69;4978210;28;20381;-32
2021/09/14 04:55:30;;;;;;;2.53;1.80;;;;;;;28.60;37.30;96490.06;4980869;28;20511;-30
2021/09/14 04:57:55;;;;;;;2.97;2.15;;;;;;;28.60;37.21;96490.88;4964013;28;20027;-28
2021/09/14 05:00:21;;;;;;;5.35;1.75;;;;;;;28.60;37.35;96490.88;4981784;28;20034;-29
2021/09/14 05:02:46;;;;;;;5.15;1.88;;;;;;;28.60;37.26;96496.16;4973310;28;20032;-30
2021/09/14 05:05:11;;;;;;;2.92;2.03;;;;;;;28.60;37.16;96490.88;4980799;28;20413;-29
2021/09/14 05:07:37;;;;;;;1.73;1.63;;;;;;;28.60;37.08;96495.34;4977267;28;20092;-29
2021/09/14 05:10:03;;;;;;;4.03;1.92;;;;;;;28.60;37.22;96492.69;4976385;28;20141;-29
2021/09/14 05:12:28;;;;;;;3.75;1.70;;;;;;;28.60;37.36;96490.88;4973610;28;20040;-28
2021/09/14 05:14:53;;;;;;;4.80;2.08;;;;;;;28.60;37.33;96490.06;4981655;28;20058;-31
2021/09/14 05:17:19;;;;;;;2.15;1.88;;;;;;;28.59;37.22;96494.47;4975379;28;20037;-27
2021/09/14 05:19:46;;;;;;;2.15;1.83;;;;;;;28.59;37.01;96494.47;4978869;28;20895;-29
2021/09/14 05:22:13;;;;;;;3.30;1.60;;;;;;;28.60;37.17;96501.44;4981468;28;20104;-29
2021/09/14 05:24:38;;;;;;;2.17;1.58;;;;;;;28.60;37.17;96500.59;4982931;28;20021;-28
2021/09/14 05:27:04;;;;;;;3.45;1.90;;;;;;;28.59;37.21;96505.03;4975545;28;20858;-29
2021/09/14 05:29:29;;;;;;;4.32;2.90;;;;;;;28.60;37.08;96498.78;4972976;28;20030;-30
2021/09/14 05:31:54;;;;;;;8.52;3.97;;;;;;;28.57;36.11;96501.66;4968406;28;20034;-28
2021/09/14 05:34:21;;;;;;;12.82;4.10;;;;;;;28.52;35.96;96509.03;4974118;28;20076;-28
2021/09/14 05:36:46;;;;;;;13.60;5.18;;;;;;;28.45;35.73;96513.88;4972785;28;20092;-30
2021/09/14 05:39:11;;;;;;;13.50;5.18;;;;;;;28.39;35.59;96504.63;4980066;28;20038;-28
2021/09/14 05:41:37;;;;;;;8.27;4.30;;;;;;;28.30;35.67;96503.44;4975118;28;20778;-26
2021/09/14 05:44:02;;;;;;;6.63;4.03;;;;;;;28.25;35.54;96507.31;4980869;28;20030;-30
2021/09/14 05:46:28;;;;;;;5.93;4.45;;;;;;;28.20;35.52;96509.41;4960280;28;20071;-29
2021/09/14 05:48:53;;;;;;;7.65;4.10;;;;;;;28.08;35.50;96511.94;4972637;28;20782;-28
2021/09/14 05:51:19;;;;;;;7.63;4.18;;;;;;;28.06;35.61;96513.81;4970276;28;20496;-29
2021/09/14 05:53:45;;;;;;;7.53;4.47;;;;;;;28.01;35.68;96510.66;4977627;28;20057;-30
2021/09/14 05:56:10;;;;;;;8.40;4.30;;;;;;;27.94;35.83;96512.84;4977867;28;20041;-28
2021/09/14 05:58:35;;;;;;;9.20;4.40;;;;;;;27.89;35.93;96507.06;4976713;28;20022;-28
2021/09/14 06:01:01;;;;;;;6.35;4.32;;;;;;;27.84;35.99;96504.72;4976320;28;20492;-28
2021/09/14 06:03:28;;;;;;;7.68;4.50;;;;;;;27.80;36.12;96505.84;4972304;28;21479;-31
2021/09/14 06:05:53;;;;;;;7.22;4.38;;;;;;;27.75;36.33;96505.31;4973802;28;20109;-32
2021/09/14 06:08:19;;;;;;;6.82;4.43;;;;;;;27.72;36.41;96505.53;4971460;28;20489;-30
2021/09/14 06:10:44;;;;;;;11.02;4.55;;;;;;;27.68;36.39;96507.50;4978282;28;20038;-31
2021/09/14 06:13:10;;;;;;;8.40;4.30;;;;;;;27.64;36.60;96511.28;4962649;28;20038;-29
2021/09/14 06:15:35;;;;;;;6.97;4.90;;;;;;;27.61;36.50;96514.97;4990367;28;20030;-29
2021/09/14 06:18:01;;;;;;;7.07;5.05;;;;;;;27.60;36.88;96515.88;4973314;28;20036;-28
2021/09/14 06:20:26;;;;;;;5.90;4.47;;;;;;;27.57;36.72;96512.63;4976260;28;20168;-30
2021/09/14 06:22:51;;;;;;;6.25;4.43;;;;;;;27.55;36.80;96512.72;4975626;28;20497;-28
2021/09/14 06:25:17;;;;;;;9.63;4.20;;;;;;;27.53;36.92;96520.72;4978168;28;20034;-28
2021/09/14 06:27:42;;;;;;;8.20;4.68;;;;;;;27.54;37.14;96526.81;4978137;28;20049;-35
2021/09/14 06:30:08;;;;;;;6.03;4.50;;;;;;;27.52;37.23;96521.66;4979396;28;20041;-29
2021/09/14 06:32:34;;;;;;;8.57;4.25;;;;;;;27.52;37.14;96519.03;4981685;28;20035;-28
2021/09/14 06:35:00;;;;;;;5.88;4.22;;;;;;;27.51;37.29;96519.13;4980730;28;20879;-28
2021/09/14 06:37:25;;;;;;;7.65;4.20;;;;;;;27.52;37.47;96521.66;4978368;28;20069;-30
2021/09/14 06:39:51;;;;;;;7.07;4.40;;;;;;;27.54;37.47;96524.19;4976084;28;20029;-28
2021/09/14 06:42:16;;;;;;;8.85;4.47;;;;;;;27.55;37.33;96509.22;4981839;28;20026;-33
2021/09/14 06:44:41;;;;;;;10.65;4.35;;;;;;;27.57;37.57;96516.06;4982689;28;20555;-28
2021/09/14 06:47:07;;;;;;;11.60;4.72;;;;;;;27.57;37.62;96523.97;4984892;28;20030;-29
2021/09/14 06:49:32;;;;;;;8.63;4.50;;;;;;;27.58;37.73;96528.28;4982671;28;20476;-30
2021/09/14 06:51:58;;;;;;;7.55;4.50;;;;;;;27.59;37.42;96530.00;4981972;28;20080;-29
2021/09/14 06:54:23;;;;;;;9.93;5.28;;;;;;;27.57;37.65;96539.75;4979164;28;20034;-28
2021/09/14 06:56:49;;;;;;;11.55;5.90;;;;;;;27.56;37.87;96530.19;4972389;28;20070;-28
2021/09/14 06:59:14;;;;;;;6.75;4.78;;;;;;;27.55;38.19;96535.56;4992151;28;20030;-28
2021/09/14 07:01:40;;;;;;;15.45;4.72;;;;;;;27.53;38.09;96528.59;4977428;28;20018;-28
2021/09/14 07:04:05;;;;;;;9.57;5.35;;;;;;;27.51;38.27;96525.22;4964737;28;20109;-28
2021/09/14 07:06:30;;;;;;;6.82;4.43;;;;;;;27.55;38.27;96525.88;4978367;28;20092;-30
2021/09/14 07:08:56;;;;;;;8.77;5.00;;;;;;;27.54;38.37;96526.81;4976091;28;20037;-30
2021/09/14 07:11:21;;;;;;;8.68;4.53;;;;;;;27.54;38.42;96524.19;4981056;28;20033;-28
2021/09/14 07:13:52;;;;;;;12.15;4.80;;;;;;;27.54;38.39;96526.81;4974877;28;20084;-28
2021/09/14 07:16:17;;;;;;;10.50;4.55;;;;;;;27.55;38.49;96520.63;4978609;28;20520;-28
2021/09/14 07:18:42;;;;;;;9.68;4.40;;;;;;;27.55;38.38;96525.88;4979077;28;20062;-28
2021/09/14 07:21:08;;;;;;;7.13;4.72;;;;;;;27.56;38.38;96522.28;4981671;28;20041;-28
2021/09/14 07:23:33;;;;;;;6.57;4.53;;;;;;;27.52;38.49;96513.75;4978751;28;20456;-27
2021/09/14 07:25:59;;;;;;;12.60;4.43;;;;;;;27.57;38.46;96523.16;4980630;28;20037;-25
2021/09/14 07:28:24;;;;;;;7.45;3.95;;;;;;;27.58;38.54;96515.13;4979928;28;20081;-29
2021/09/14 07:30:50;;;;;;;6.75;4.25;;;;;;;27.59;38.40;96516.84;4981429;28;20040;-28
2021/09/14 07:33:16;;;;;;;11.65;4.03;;;;;;;27.63;38.37;96513.09;4981551;28;20440;-27
2021/09/14 07:35:41;;;;;;;15.48;5.00;;;;;;;27.68;38.26;96519.84;4980608;28;20029;-33
2021/09/14 07:38:07;;;;;;;9.57;4.57;;;;;;;27.70;38.45;96524.06;4972842;28;20054;-26
2021/09/14 07:40:32;;;;;;;20.13;5.88;;;;;;;27.73;38.18;96526.47;4973311;28;20033;-29
2021/09/14 07:42:58;;;;;;;27.73;8.18;;;;;;;27.76;38.54;96528.06;4978371;28;20025;-30
2021/09/14 07:45:23;;;;;;;31.65;9.00;;;;;;;27.81;38.32;96535.69;4974927;28;20069;-28
2021/09/14 07:47:49;;;;;;;25.90;8.02;;;;;;;27.83;38.56;96537.25;4983642;28;20077;-28
2021/09/14 07:50:14;;;;;;;32.83;8.88;;;;;;;27.86;38.39;96534.44;4987752;28;20037;-26
2021/09/14 07:52:40;;;;;;;34.30;9.30;;;;;;;27.89;38.36;96528.13;4983911;28;20030;-28
2021/09/14 07:55:06;;;;;;;26.30;9.27;;;;;;;27.91;38.46;96532.34;4981712;28;20026;-28
2021/09/14 07:57:31;;;;;;;28.45;9.60;;;;;;;27.96;38.27;96533.81;4978888;28;20034;-27
2021/09/14 07:59:56;;;;;;;34.00;9.60;;;;;;;27.98;38.30;96531.91;4983494;28;20095;-26
2021/09/14 08:02:23;;;;;;;47.60;9.73;;;;;;;28.01;38.30;96531.72;4988438;28;20037;-27
2021/09/14 08:04:48;;;;;;;30.88;9.15;;;;;;;28.02;38.26;96538.69;4981563;28;20053;-28
2021/09/14 08:07:16;;;;;;;38.38;9.18;;;;;;;28.03;38.24;96535.09;4984090;28;20492;-28
2021/09/14 08:09:42;;;;;;;33.03;9.90;;;;;;;28.06;38.38;96532.25;4986427;28;20054;-29
2021/09/14 08:12:07;;;;;;;33.17;9.15;;;;;;;28.09;38.35;96536.47;4984918;28;20280;-29
2021/09/14 08:14:33;;;;;;;32.33;8.98;;;;;;;28.10;38.39;96540.81;4977854;28;20025;-29
2021/09/14 08:16:58;;;;;;;23.58;8.15;;;;;;;28.12;38.45;96542.41;4986414;28;20484;-28
2021/09/14 08:19:24;;;;;;;23.65;8.68;;;;;;;28.13;38.40;96536.19;4980358;28;20141;-28
2021/09/14 08:21:49;;;;;;;28.27;9.07;;;;;;;28.16;38.48;96535.13;4984592;28;20027;-28
2021/09/14 08:24:14;;;;;;;24.35;8.40;;;;;;;28.17;38.37;96532.41;4983725;28;20038;-28
2021/09/14 08:26:40;;;;;;;24.88;7.80;;;;;;;28.18;38.45;96531.44;4979735;28;20034;-29
2021/09/14 08:29:06;;;;;;;26.23;8.30;;;;;;;28.20;38.39;96533.13;4984813;28;20187;-28
2021/09/14 08:31:31;;;;;;;27.13;8.13;;;;;;;28.22;38.38;96539.16;4986410;28;20034;-26
2021/09/14 08:33:57;;;;;;;17.20;7.15;;;;;;;28.22;38.29;96534.69;4983509;28;20042;-29
2021/09/14 08:36:23;;;;;;;21.63;7.35;;;;;;;28.24;38.28;96535.47;4985395;28;20029;-29
2021/09/14 08:38:48;;;;;;;19.38;7.72;;;;;;;28.26;38.09;96545.94;4985692;28;20084;-28
2021/09/14 08:41:15;;;;;;;22.92;7.40;;;;;;;28.26;38.33;96535.38;4983485;28;20484;-29
2021/09/14 08:43:42;;;;;;;20.67;6.68;;;;;;;28.27;38.18;96532.63;4983801;28;20022;-30
2021/09/14 08:46:07;;;;;;;16.50;7.20;;;;;;;28.29;38.21;96527.25;4984265;28;20026;-26
2021/09/14 08:48:37;;;;;;;17.27;6.35;;;;;;;28.30;38.47;96531.59;4981324;28;20038;-27
2021/09/14 08:51:03;;;;;;;16.95;6.43;;;;;;;28.32;38.32;96537.59;4985163;28;20062;-27
2021/09/14 08:53:30;;;;;;;14.25;6.13;;;;;;;28.31;38.14;96522.75;4984739;28;20034;-28
2021/09/14 08:55:56;;;;;;;16.40;6.63;;;;;;;28.34;38.37;96533.06;4985312;28;20033;-29
2021/09/14 08:58:21;;;;;;;15.25;6.18;;;;;;;28.33;38.25;96528.75;4983986;28;20115;-27
2021/09/14 09:00:47;;;;;;;13.88;5.70;;;;;;;28.36;38.32;96525.91;4982724;28;20030;-28
2021/09/14 09:03:19;;;;;;;18.70;5.85;;;;;;;28.37;38.22;96521.50;4985794;28;20041;-27
2021/09/14 09:05:45;;;;;;;12.93;5.20;;;;;;;28.39;38.37;96533.63;4968126;28;20734;-28
2021/09/14 09:08:16;;;;;;;16.05;5.88;;;;;;;28.40;38.22;96532.66;4982570;28;20034;-28
2021/09/14 09:10:42;;;;;;;14.80;5.82;;;;;;;28.40;38.24;96527.38;4987632;28;20037;-28
2021/09/14 09:13:07;;;;;;;12.20;5.38;;;;;;;28.40;38.37;96527.38;4985986;28;20034;-29
2021/09/14 09:15:33;;;;;;;15.60;5.78;;;;;;;28.42;38.24;96530.75;4982654;28;20056;-29
2021/09/14 09:18:09;;;;;;;12.35;5.70;;;;;;;28.42;38.25;96520.22;4986911;28;20061;-28
2021/09/14 09:20:37;;;;;;;12.68;5.80;;;;;;;28.43;38.32;96529.81;4982529;28;20036;-27
2021/09/14 09:23:13;;;;;;;13.52;5.65;;;;;;;28.43;38.40;96524.56;4984367;28;20042;-29
2021/09/14 09:25:38;;;;;;;13.10;5.25;;;;;;;28.45;38.22;96529.69;4967693;28;20037;-29
2021/09/14 09:28:04;;;;;;;13.02;4.57;;;;;;;28.45;38.35;96529.69;4969390;28;20038;-28
2021/09/14 09:30:33;;;;;;;10.90;4.85;;;;;;;28.47;38.24;96532.22;4983448;28;20370;-29
2021/09/14 09:33:02;;;;;;;12.93;4.90;;;;;;;28.48;38.55;96528.63;4968868;28;20064;-28
2021/09/14 09:35:32;;;;;;;9.23;4.40;;;;;;;28.49;38.53;96530.34;4982754;28;20480;-29
2021/09/14 09:37:57;;;;;;;10.38;4.63;;;;;;;28.50;38.36;96529.38;4983859;28;20113;-28
2021/09/14 09:40:31;;;;;;;11.30;5.07;;;;;;;28.51;38.30;96524.03;4979726;28;20384;-28
2021/09/14 09:42:57;;;;;;;9.55;4.47;;;;;;;28.50;38.40;96526.75;4979389;28;20103;-28
2021/09/14 09:45:23;;;;;;;9.10;4.20;;;;;;;28.51;38.33;96523.16;4984479;28;20026;-28
2021/09/14 09:47:48;;;;;;;10.38;4.85;;;;;;;28.53;38.43;96526.56;4980434;28;20970;-28
2021/09/14 09:50:14;;;;;;;9.27;4.43;;;;;;;28.54;38.29;96522.97;4982923;28;20026;-28
2021/09/14 09:52:40;;;;;;;10.73;4.43;;;;;;;28.53;38.50;96521.28;4981668;28;20050;-30
2021/09/14 09:55:06;;;;;;;11.55;4.65;;;;;;;28.54;38.46;96522.97;4982719;28;20408;-28
2021/09/14 09:57:32;;;;;;;8.23;4.13;;;;;;;28.57;38.33;96512.22;4979832;28;20069;-27
2021/09/14 09:59:57;;;;;;;9.27;4.38;;;;;;;28.55;38.49;96514.09;4966932;28;20030;-27
2021/09/14 10:02:24;;;;;;;8.57;4.03;;;;;;;28.56;38.41;96514.00;4967994;28;20392;-28
2021/09/14 10:04:54;;;;;;;10.38;3.88;;;;;;;28.58;38.32;96508.63;4968115;28;20026;-27
2021/09/14 10:07:19;;;;;;;9.65;4.25;;;;;;;28.59;38.64;96510.31;4984081;28;20448;-27
2021/09/14 10:09:52;;;;;;;9.77;4.10;;;;;;;28.59;38.34;96514.72;4980256;28;20037;-27
2021/09/14 10:12:25;;;;;;;7.72;3.63;;;;;;;28.61;38.36;96518.97;4980552;28;20076;-29
2021/09/14 10:15:07;;;;;;;8.68;4.10;;;;;;;28.62;38.63;96515.38;4995313;28;20200;-28
2021/09/14 10:17:46;;;;;;;7.35;3.78;;;;;;;28.62;38.50;96514.50;4982388;28;20057;-31
2021/09/14 10:20:12;;;;;;;7.63;3.78;;;;;;;28.63;38.16;96519.69;4982266;28;20033;-29
2021/09/14 10:22:37;;;;;;;7.88;3.78;;;;;;;28.63;38.58;96517.03;4979205;28;20034;-30
2021/09/14 10:25:04;;;;;;;7.85;4.00;;;;;;;28.63;38.42;96511.78;4984961;28;20875;-30
2021/09/14 10:27:40;;;;;;;6.72;3.70;;;;;;;28.65;38.20;96509.84;4984336;28;20030;-28
2021/09/14 10:30:07;;;;;;;6.78;3.72;;;;;;;28.66;38.30;96510.72;4984896;28;20108;-29
2021/09/14 10:32:39;;;;;;;7.65;3.88;;;;;;;28.66;38.55;96510.72;4977770;28;20041;-28
2021/09/14 10:35:05;;;;;;;6.25;3.50;;;;;;;28.64;38.27;96510.00;4986344;28;20094;-28
2021/09/14 10:37:34;;;;;;;6.60;3.47;;;;;;;28.67;38.33;96513.25;4983333;28;20030;-30
2021/09/14 10:40:26;;;;;;;6.97;3.28;;;;;;;28.68;38.41;96509.66;4980617;28;20034;-30
2021/09/14 10:42:51;;;;;;;;;;;;;;;28.69;38.39;96506.06;4975036;28;20042;-29
2021/09/14 10:45:18;;;;;;;7.43;4.13;;;;;;;28.71;38.47;96513.03;4981374;28;19925;-29
2021/09/14 10:47:48;;;;;;;5.60;3.30;;;;;;;28.69;38.58;96506.06;4983389;28;20057;-29
2021/09/14 10:50:28;;;;;;;5.87;3.40;;;;;;;28.70;38.33;96509.56;4984448;28;20105;-29
2021/09/14 10:53:00;;;;;;;8.70;3.60;;;;;;;28.72;38.43;96501.53;4979046;28;20075;-30
2021/09/14 10:55:26;;;;;;;5.53;3.20;;;;;;;28.73;38.58;96511.13;4982234;28;20042;-28
2021/09/14 10:58:00;;;;;;;6.20;3.50;;;;;;;28.73;38.55;96511.13;4987226;28;20518;-29
2021/09/14 11:00:26;;;;;;;7.65;3.47;;;;;;;28.72;38.60;96509.44;4969270;28;20081;-29
2021/09/14 11:02:56;;;;;;;6.97;3.75;;;;;;;28.75;38.49;96510.06;4985900;28;20034;-32
2021/09/14 11:05:34;;;;;;;5.90;3.20;;;;;;;28.77;38.45;96513.47;4987862;28;20167;-28
2021/09/14 11:08:01;;;;;;;7.40;4.00;;;;;;;28.77;38.50;96512.59;4982223;28;20042;-29
2021/09/14 11:10:34;;;;;;;6.38;3.50;;;;;;;28.78;38.47;96515.13;4989011;28;20101;-29
2021/09/14 11:12:59;;;;;;;6.72;3.33;;;;;;;28.79;38.48;96505.41;4983400;28;20117;-31
2021/09/14 11:15:25;;;;;;;7.95;3.42;;;;;;;28.80;38.41;96512.41;4988150;28;20112;-29
2021/09/14 11:17:50;;;;;;;7.18;3.42;;;;;;;28.81;38.47;96514.06;4985782;28;20141;-29
2021/09/14 11:20:20;;;;;;;6.00;3.10;;;;;;;28.81;38.60;96508.81;4984227;28;20033;-29
2021/09/14 11:22:47;;;;;;;5.97;3.17;;;;;;;28.82;38.59;96505.22;4997841;28;20026;-29
2021/09/14 11:25:23;;;;;;;7.30;3.30;;;;;;;28.84;38.59;96511.22;4986042;28;20109;-29
2021/09/14 11:27:57;;;;;;;5.10;3.08;;;;;;;28.85;38.68;96518.19;4984059;28;20033;-29
2021/09/14 11:30:23;;;;;;;6.28;2.80;;;;;;;28.87;38.59;96512.81;4982689;28;20034;-29
2021/09/14 11:32:50;;;;;;;5.63;3.05;;;;;;;28.86;38.59;96511.97;4989902;28;20048;-29
2021/09/14 11:35:16;;;;;;;4.90;2.97;;;;;;;28.88;38.58;96525.91;4966718;28;20031;-29
2021/09/14 11:37:41;;;;;;;5.55;2.83;;;;;;;28.88;38.62;96520.63;4981685;28;20556;-29
2021/09/14 11:40:16;;;;;;;6.00;3.10;;;;;;;28.90;38.73;96524.00;4986402;28;20034;-29
2021/09/14 11:42:57;;;;;;;6.28;3.15;;;;;;;28.90;38.52;96524.00;4983745;28;21822;-29
2021/09/14 11:45:24;;;;;;;5.00;2.85;;;;;;;28.92;38.78;96521.28;4986279;28;20026;-29
2021/09/14 11:47:51;;;;;;;4.53;2.40;;;;;;;28.91;38.64;96520.41;4985037;28;20031;-29
2021/09/14 11:50:23;;;;;;;6.00;2.85;;;;;;;28.93;38.62;96522.94;4986473;28;20033;-32
2021/09/14 11:53:00;;;;;;;4.95;2.83;;;;;;;28.93;38.68;96521.16;4982694;28;20038;-30
2021/09/14 11:55:29;;;;;;;4.78;2.85;;;;;;;28.93;38.68;96523.81;4984656;28;20120;-28
2021/09/14 11:57:55;;;;;;;5.40;3.00;;;;;;;28.94;38.74;96519.34;4964603;28;20598;-29
2021/09/14 12:00:21;;;;;;;4.35;2.60;;;;;;;28.95;38.63;96521.88;4982924;28;20034;-29
2021/09/14 12:02:50;;;;;;;4.72;2.70;;;;;;;28.95;38.70;96510.50;4982861;28;20033;-29
2021/09/14 12:05:20;;;;;;;3.67;2.45;;;;;;;28.97;38.71;96515.66;4983381;28;20026;-31
2021/09/14 12:07:57;;;;;;;5.40;2.65;;;;;;;28.97;38.80;96518.28;4982920;28;20038;-28
2021/09/14 12:10:24;;;;;;;5.18;3.00;;;;;;;28.98;38.54;96518.19;4987328;28;20033;-28
2021/09/14 12:12:53;;;;;;;4.22;2.70;;;;;;;29.00;38.76;96518.09;4989523;28;20057;-29
2021/09/14 12:15:19;;;;;;;3.72;2.38;;;;;;;29.00;38.71;96518.09;4977971;28;20109;-29
2021/09/14 12:17:45;;;;;;;4.57;2.55;;;;;;;29.01;38.62;96514.47;4983724;28;20026;-30
2021/09/14 12:20:11;;;;;;;5.20;2.70;;;;;;;29.01;38.80;96519.75;4979841;28;20034;-30
2021/09/14 12:22:36;;;;;;;6.32;2.65;;;;;;;29.02;38.63;96516.19;4982472;28;20025;-29
2021/09/14 12:25:02;;;;;;;4.90;2.55;;;;;;;29.02;38.63;96510.91;4982981;28;20034;-30